Paradise, Indiana
Current Conditions -  °F | °C
As of 12:54 PM on Tuesday 27 Jan 2015 (Local Time) from KEVV Reporting Station
Overcast Overcast  
Wind Chill: 30°   Ceiling: 1400
Heat Index: 36°   Visibility: 7mi
Dew Point: 30°   Wind: 7mph
Humidity: 79%   Direction: 340°NNW
Pressure: 30.13"   Gusts: NA
Location:  37.9629°N, 87.3632°W
Report Text: KEVV 271854Z 34006KT 7SM OVC014 02/M01 A3013 RMK AO2 SLP207 T00221011
Loading
Personal Weather Stations






























Interactive Weather Map New forecast layout! Learn more

10-Day Weather Forecast

Advertisements
Track Severe Weather on mobile